Etusivu
METAR-TAF:

METAR-TAF

Lentoasemat :

Audubon County Airport

Audubon, Iowa, Yhdysvallat

Leveyspiiri: 41-42-04N, Pituuspiiri: 094-55-13W, korkeus merenpinnasta: 392 m

Tämänhetkinen sää

Tämä raportti tehtiin 17 minuuttia sitten, kello 16.35 UTC
Tuuli 7 kn koillisesta
Lämpötila 28°C
Kosteus 28%
Ilmanpaine 1019 hPa
Näkyvyys: 16.1 km
Hajanaisia pilviä 400 ft:n korkeudessa
Hajonneita pilviä 3000 ft:n korkeudessa
Pilvistä 5500 ft:n korkeudessa

METAR: KADU 141635Z AUTO 04007KT 10SM SCT004 BKN030 OVC055 28/08 A3009 RMK AO2

Aika: 11:52 (16:52 UTC)


TAF: puuttuu

Säähavainnot ja -ennusteet yli 4000 lentoasemalta (METAR- ja TAF-raportit).

Käytössä olevat sääasemat on merkitty karttaan keltaisilla ja punaisilla pisteillä.

Aseta hiiri pisteen päälle nähdäksesi sääaseman nimen.

Klikkaa sitten nähdäksesi säähavainnot ja -ennusteet.

Kartan vaihtaminen: klikkaa mustalla rastilla varustettuja vihreitä pisteitä, niin voit zoomata sisään; viivalla varustettua vihreää pistettä, niin voit zoomata ulos tai vihreitä nuolia, niin pääset viereisille kartoille.


METAR-TAF: